Time;durP1;ratioP1;P1;durP2;ratioP2;P2;SDS_P1;SDS_P2;PMS_P1;PMS_P2;Temp;Humidity;BMP_temperature;BMP_pressure;BME280_temperature;BME280_humidity;BME280_pressure;Samples;Min_cycle;Max_cycle;Signal;HPM_P1;HPM_P2
2023/05/09 00:01:59;;;;;;;12.45;9.65;;;19.40;70.50;;;;;;4998001;28;20076;-79
2023/05/09 00:04:25;;;;;;;13.80;10.00;;;19.40;70.50;;;;;;5014216;28;20038;-79
2023/05/09 00:06:51;;;;;;;14.10;10.88;;;19.40;70.60;;;;;;5030515;28;20033;-79
2023/05/09 00:09:17;;;;;;;13.00;9.95;;;19.40;70.60;;;;;;5014024;28;20029;-79
2023/05/09 00:11:43;;;;;;;12.95;9.45;;;19.40;70.60;;;;;;4997732;28;20022;-78
2023/05/09 00:14:11;;;;;;;13.30;10.50;;;19.30;70.50;;;;;;5031339;28;20038;-79
2023/05/09 00:16:37;;;;;;;13.15;9.68;;;19.30;70.50;;;;;;4997902;28;20479;-80
2023/05/09 00:19:03;;;;;;;14.80;11.45;;;19.30;70.60;;;;;;5014812;28;20025;-79
2023/05/09 00:21:29;;;;;;;13.10;9.95;;;19.30;71.20;;;;;;5030292;28;20040;-79
2023/05/09 00:23:55;;;;;;;14.55;10.60;;;19.30;70.60;;;;;;5015247;28;20029;-80
2023/05/09 00:26:21;;;;;;;12.82;9.95;;;19.30;70.60;;;;;;5013939;28;20053;-79
2023/05/09 00:28:48;;;;;;;14.20;10.05;;;19.30;70.70;;;;;;5014067;28;20045;-79
2023/05/09 00:31:14;;;;;;;12.85;10.00;;;19.20;70.60;;;;;;4998504;28;20363;-79
2023/05/09 00:33:39;;;;;;;12.93;9.45;;;19.20;70.60;;;;;;5046999;28;20117;-79
2023/05/09 00:36:05;;;;;;;12.30;8.98;;;19.20;70.60;;;;;;5014735;28;20041;-79
2023/05/09 00:38:31;;;;;;;12.75;10.20;;;19.20;70.60;;;;;;5013808;28;20145;-79
2023/05/09 00:40:57;;;;;;;12.10;9.68;;;19.20;70.70;;;;;;5013649;28;20125;-79
2023/05/09 00:43:23;;;;;;;13.23;9.55;;;19.20;70.70;;;;;;5015204;28;20053;-79
2023/05/09 00:45:49;;;;;;;13.32;10.10;;;19.20;70.70;;;;;;5013393;28;20041;-79
2023/05/09 00:48:15;;;;;;;13.30;9.85;;;19.20;70.70;;;;;;5013726;28;20124;-78
2023/05/09 00:50:41;;;;;;;12.38;9.43;;;19.10;70.60;;;;;;5013155;28;20044;-79
2023/05/09 00:53:08;;;;;;;13.25;10.20;;;19.20;70.70;;;;;;5013021;28;20026;-79
2023/05/09 00:55:34;;;;;;;12.98;10.70;;;19.10;70.70;;;;;;5014092;28;20030;-79
2023/05/09 00:57:59;;;;;;;13.43;10.23;;;19.10;70.80;;;;;;5013195;28;20442;-79
2023/05/09 01:00:25;;;;;;;13.50;10.38;;;19.10;70.70;;;;;;5013372;28;20034;-79
2023/05/09 01:02:54;;;;;;;12.63;9.98;;;19.10;70.70;;;;;;4980985;28;20034;-79
2023/05/09 01:05:21;;;;;;;12.70;10.07;;;19.10;70.80;;;;;;5029861;28;20116;-79
2023/05/09 01:07:47;;;;;;;13.80;9.88;;;19.10;70.80;;;;;;5013603;28;20030;-79
2023/05/09 01:10:18;;;;;;;12.63;9.35;;;19.10;70.80;;;;;;5046484;28;20482;-79
2023/05/09 01:13:04;;;;;;;12.63;9.20;;;19.10;70.90;;;;;;5030123;28;20058;-79
2023/05/09 01:15:36;;;;;;;13.27;9.43;;;19.00;70.90;;;;;;4997680;28;20343;-79
2023/05/09 01:18:24;;;;;;;12.75;9.48;;;19.10;70.90;;;;;;5013697;28;20092;-78
2023/05/09 01:21:13;;;;;;;11.95;9.13;;;19.00;70.90;;;;;;5032372;28;20030;-79
2023/05/09 01:24:29;;;;;;;13.43;9.82;;;19.00;70.90;;;;;;5035853;28;20026;-79
2023/05/09 01:27:46;;;;;;;11.75;9.07;;;19.00;70.90;;;;;;5017236;28;20041;-79
2023/05/09 01:30:13;;;;;;;11.75;8.98;;;19.00;70.90;;;;;;5005596;28;20520;-79
2023/05/09 01:32:42;;;;;;;13.35;9.95;;;19.00;70.90;;;;;;5014341;28;20080;-79
2023/05/09 01:35:11;;;;;;;12.88;9.43;;;18.90;70.90;;;;;;5029133;28;20042;-79
2023/05/09 01:37:41;;;;;;;12.75;9.27;;;19.00;71.00;;;;;;5028817;28;20084;-79
2023/05/09 01:40:13;;;;;;;12.60;9.65;;;18.90;71.00;;;;;;5046584;28;20592;-79
2023/05/09 01:42:46;;;;;;;13.57;9.70;;;18.90;71.00;;;;;;5029985;28;20037;-78
2023/05/09 01:45:14;;;;;;;11.75;9.13;;;18.90;71.00;;;;;;5047605;28;20022;-79
2023/05/09 01:47:40;;;;;;;12.30;8.93;;;18.90;71.00;;;;;;5031742;28;20054;-79
2023/05/09 01:50:08;;;;;;;14.30;10.52;;;18.90;71.00;;;;;;5047250;28;20105;-79
2023/05/09 01:52:36;;;;;;;12.35;9.60;;;18.90;71.00;;;;;;5046817;28;20083;-79
2023/05/09 01:55:03;;;;;;;13.63;10.02;;;18.90;71.00;;;;;;5012677;28;20049;-79
2023/05/09 01:57:29;;;;;;;12.85;10.02;;;18.90;71.00;;;;;;5012296;28;20038;-79
2023/05/09 01:59:57;;;;;;;13.40;10.13;;;18.90;71.00;;;;;;4996080;28;20065;-79
2023/05/09 02:02:26;;;;;;;12.95;10.25;;;18.90;71.00;;;;;;5028984;28;20022;-79
2023/05/09 02:04:54;;;;;;;12.98;9.82;;;18.90;71.10;;;;;;5014001;28;20026;-79
2023/05/09 02:07:22;;;;;;;11.65;9.30;;;18.90;71.10;;;;;;4996604;28;20018;-79
2023/05/09 02:09:55;;;;;;;13.00;10.23;;;18.80;71.00;;;;;;4997239;28;20041;-79
2023/05/09 02:12:23;;;;;;;13.38;10.50;;;18.80;71.00;;;;;;5029422;28;20033;-79
2023/05/09 02:14:49;;;;;;;12.98;10.18;;;18.80;71.10;;;;;;4996191;28;20096;-79
2023/05/09 02:17:16;;;;;;;11.88;9.15;;;18.90;71.10;;;;;;5014440;28;20049;-79
2023/05/09 02:19:44;;;;;;;13.73;10.18;;;18.80;71.10;;;;;;5013178;28;20053;-79
2023/05/09 02:22:12;;;;;;;12.05;8.70;;;18.90;71.20;;;;;;5045195;28;20034;-79
2023/05/09 02:24:38;;;;;;;12.77;9.73;;;18.80;71.10;;;;;;5013146;28;20109;-79
2023/05/09 02:27:06;;;;;;;13.48;10.05;;;18.80;71.10;;;;;;4997989;28;20034;-79
2023/05/09 02:29:40;;;;;;;13.20;9.75;;;18.90;71.20;;;;;;5031829;28;20077;-79
2023/05/09 02:32:22;;;;;;;13.15;10.13;;;18.80;71.20;;;;;;5016165;28;20037;-79
2023/05/09 02:34:51;;;;;;;12.50;9.50;;;18.80;71.10;;;;;;5031759;28;20029;-79
2023/05/09 02:37:17;;;;;;;13.15;9.82;;;18.80;71.10;;;;;;5047021;28;20061;-79
2023/05/09 02:39:43;;;;;;;14.88;10.77;;;18.80;71.20;;;;;;5014844;28;20062;-79
2023/05/09 02:42:11;;;;;;;14.18;10.05;;;18.80;71.20;;;;;;5012342;28;20038;-79
2023/05/09 02:44:39;;;;;;;13.07;10.32;;;18.80;71.20;;;;;;5029300;28;20484;-78
2023/05/09 02:47:06;;;;;;;14.35;10.60;;;18.80;71.20;;;;;;5013795;28;20112;-79
2023/05/09 02:49:33;;;;;;;14.98;10.82;;;18.70;71.20;;;;;;5012648;28;20382;-79
2023/05/09 02:52:01;;;;;;;14.48;10.60;;;18.80;71.30;;;;;;5028976;28;20038;-79
2023/05/09 02:54:26;;;;;;;12.32;9.90;;;18.70;71.20;;;;;;4996546;28;20462;-79
2023/05/09 02:56:52;;;;;;;13.20;9.82;;;18.70;71.20;;;;;;5028951;28;20037;-79
2023/05/09 02:59:19;;;;;;;12.77;9.45;;;18.70;71.30;;;;;;5012237;28;20025;-79
2023/05/09 03:01:45;;;;;;;14.45;10.60;;;18.70;71.30;;;;;;4995645;28;20129;-79
2023/05/09 03:04:11;;;;;;;13.95;10.38;;;18.70;71.30;;;;;;5045252;28;20069;-79
2023/05/09 03:06:37;;;;;;;13.35;9.73;;;18.60;71.20;;;;;;5012378;28;20557;-79
2023/05/09 03:09:03;;;;;;;13.48;10.57;;;18.70;71.30;;;;;;4996104;28;20065;-79
2023/05/09 03:11:29;;;;;;;14.00;10.73;;;18.70;71.30;;;;;;4999012;28;20026;-79
2023/05/09 03:13:56;;;;;;;13.80;10.10;;;18.70;71.40;;;;;;4999884;28;20026;-79
2023/05/09 03:16:21;;;;;;;14.02;10.00;;;18.60;71.30;;;;;;5048621;28;20379;-79
2023/05/09 03:18:48;;;;;;;14.05;9.63;;;18.60;71.30;;;;;;5015534;28;20532;-79
2023/05/09 03:21:14;;;;;;;13.48;10.20;;;18.70;71.40;;;;;;4999058;28;20022;-79
2023/05/09 03:23:40;;;;;;;13.60;10.57;;;18.60;71.40;;;;;;5015515;28;20117;-79
2023/05/09 03:26:06;;;;;;;12.70;9.90;;;18.60;71.40;;;;;;4999794;28;20363;-78
2023/05/09 03:28:32;;;;;;;13.23;10.13;;;18.60;71.40;;;;;;4999733;28;20065;-78
2023/05/09 03:31:01;;;;;;;13.02;9.48;;;18.60;71.40;;;;;;5015710;28;20030;-79
2023/05/09 03:33:28;;;;;;;12.40;9.50;;;18.60;71.40;;;;;;5015487;28;20113;-79
2023/05/09 03:35:54;;;;;;;13.13;9.48;;;18.60;71.50;;;;;;5048355;28;20124;-79
2023/05/09 03:38:23;;;;;;;13.55;10.18;;;18.60;71.40;;;;;;5014802;28;20073;-79
2023/05/09 03:40:50;;;;;;;12.60;9.88;;;18.60;71.40;;;;;;4999033;28;20038;-79
2023/05/09 03:43:16;;;;;;;12.85;9.55;;;18.60;71.50;;;;;;5048112;28;20148;-78
2023/05/09 03:45:42;;;;;;;12.50;10.13;;;18.60;71.50;;;;;;5047929;28;20491;-78
2023/05/09 03:48:10;;;;;;;14.23;10.63;;;18.60;71.50;;;;;;5015982;28;20129;-78
2023/05/09 03:50:42;;;;;;;12.38;9.27;;;18.60;71.50;;;;;;4999930;28;20032;-78
2023/05/09 03:53:08;;;;;;;13.70;9.63;;;18.60;71.50;;;;;;5014583;28;20045;-78
2023/05/09 03:55:35;;;;;;;12.45;9.90;;;18.50;71.50;;;;;;5015595;28;20479;-78
2023/05/09 03:58:02;;;;;;;12.63;9.77;;;18.50;71.50;;;;;;4998632;28;20058;-78
2023/05/09 04:00:29;;;;;;;13.38;10.00;;;18.50;71.50;;;;;;5047970;28;20080;-79
2023/05/09 04:03:03;;;;;;;12.85;9.70;;;18.50;71.50;;;;;;5014723;28;20182;-78
2023/05/09 04:05:35;;;;;;;13.45;10.20;;;18.60;71.50;;;;;;5000106;28;20037;-77
2023/05/09 04:08:03;;;;;;;13.40;10.10;;;18.50;71.50;;;;;;5014016;28;20038;-77
2023/05/09 04:10:31;;;;;;;12.52;9.48;;;18.50;71.50;;;;;;5030935;28;20015;-77
2023/05/09 04:12:57;;;;;;;13.68;10.38;;;18.50;71.50;;;;;;4998227;28;20088;-78
2023/05/09 04:15:23;;;;;;;12.35;9.90;;;18.50;71.50;;;;;;5016054;28;20037;-78
2023/05/09 04:17:49;;;;;;;14.13;10.32;;;18.50;71.50;;;;;;5034970;28;20033;-78
2023/05/09 04:20:14;;;;;;;14.43;10.68;;;18.50;71.50;;;;;;5049834;28;20033;-78
2023/05/09 04:22:41;;;;;;;13.02;9.70;;;18.50;71.60;;;;;;5016565;28;20037;-78
2023/05/09 04:25:12;;;;;;;11.82;9.48;;;18.50;71.60;;;;;;4997969;28;20033;-78
2023/05/09 04:27:39;;;;;;;12.73;9.57;;;18.40;71.50;;;;;;5048575;28;20041;-77
2023/05/09 04:30:05;;;;;;;12.25;9.20;;;18.40;71.50;;;;;;5007015;28;20033;-79
2023/05/09 04:32:31;;;;;;;12.93;9.55;;;18.50;71.60;;;;;;5038571;28;20065;-78
2023/05/09 04:34:57;;;;;;;13.32;9.63;;;18.40;71.50;;;;;;5021828;28;20034;-77
2023/05/09 04:37:29;;;;;;;12.27;9.35;;;18.40;71.50;;;;;;5000457;28;20118;-78
2023/05/09 04:39:55;;;;;;;11.88;9.63;;;18.40;71.50;;;;;;5031652;28;20040;-78
2023/05/09 04:42:26;;;;;;;12.82;9.13;;;18.40;71.60;;;;;;5000281;28;20091;-77
2023/05/09 04:44:52;;;;;;;11.68;9.27;;;18.40;71.60;;;;;;4997795;28;20129;-78
2023/05/09 04:47:20;;;;;;;12.43;9.82;;;18.40;71.60;;;;;;4998309;28;20026;-77
2023/05/09 04:49:46;;;;;;;11.98;9.68;;;18.40;71.60;;;;;;5047221;28;20040;-78
2023/05/09 04:52:11;;;;;;;12.98;9.77;;;18.40;71.60;;;;;;4997469;28;20041;-79
2023/05/09 04:54:37;;;;;;;12.50;9.50;;;18.40;71.60;;;;;;5013837;28;20141;-79
2023/05/09 04:57:05;;;;;;;13.38;9.70;;;18.40;71.70;;;;;;4998086;28;20021;-81
2023/05/09 04:59:32;;;;;;;13.38;9.52;;;18.40;71.70;;;;;;5029809;28;20034;-76
2023/05/09 05:01:58;;;;;;;12.57;9.55;;;18.40;71.70;;;;;;5015389;28;20451;-77
2023/05/09 05:04:25;;;;;;;12.43;9.27;;;18.40;71.70;;;;;;5013490;28;20100;-77
2023/05/09 05:06:51;;;;;;;12.18;9.55;;;18.40;71.70;;;;;;5013374;28;20026;-79
2023/05/09 05:09:16;;;;;;;12.73;9.73;;;18.40;71.70;;;;;;4997347;28;20121;-78
2023/05/09 05:11:42;;;;;;;11.88;9.05;;;18.40;71.70;;;;;;5013036;28;20034;-78
2023/05/09 05:14:08;;;;;;;12.30;9.23;;;18.40;71.70;;;;;;5012920;28;20034;-78
2023/05/09 05:16:33;;;;;;;11.60;8.77;;;18.40;71.70;;;;;;5019024;28;20110;-77
2023/05/09 05:19:00;;;;;;;11.50;8.90;;;18.40;71.70;;;;;;5021139;28;20041;-77
2023/05/09 05:21:26;;;;;;;12.73;9.70;;;18.30;71.70;;;;;;5046232;28;20121;-77
2023/05/09 05:23:52;;;;;;;12.30;9.45;;;18.30;71.70;;;;;;5013996;28;20107;-77
2023/05/09 05:26:18;;;;;;;12.57;9.35;;;18.30;71.80;;;;;;4997117;28;20026;-77
2023/05/09 05:28:44;;;;;;;12.30;9.40;;;18.30;71.80;;;;;;5046458;28;20047;-77
2023/05/09 05:31:10;;;;;;;12.27;8.98;;;18.30;71.80;;;;;;4996955;28;20048;-77
2023/05/09 05:33:36;;;;;;;11.77;9.30;;;18.30;71.80;;;;;;5012717;28;20478;-77
2023/05/09 05:36:02;;;;;;;12.23;9.00;;;18.30;71.80;;;;;;4997303;28;20387;-77
2023/05/09 05:38:28;;;;;;;11.55;8.98;;;18.30;71.80;;;;;;5029088;28;20557;-76
2023/05/09 05:40:55;;;;;;;11.60;8.65;;;18.30;71.70;;;;;;5013070;28;20041;-76
2023/05/09 05:43:23;;;;;;;11.43;8.75;;;18.30;71.70;;;;;;4997307;28;20060;-76
2023/05/09 05:45:48;;;;;;;11.63;8.35;;;18.30;71.70;;;;;;5015614;28;20034;-77
2023/05/09 05:48:17;;;;;;;12.48;9.00;;;18.30;71.60;;;;;;5019029;28;20038;-77
2023/05/09 05:50:43;;;;;;;10.68;8.35;;;18.30;71.60;;;;;;4997543;28;20076;-77
2023/05/09 05:53:10;;;;;;;11.10;8.18;;;18.30;71.60;;;;;;5013267;28;20034;-77
2023/05/09 05:55:36;;;;;;;10.95;8.30;;;18.30;71.60;;;;;;5045764;28;20136;-77
2023/05/09 05:58:03;;;;;;;10.18;7.65;;;18.30;71.70;;;;;;4996761;28;20586;-77
2023/05/09 06:00:29;;;;;;;11.50;8.45;;;18.30;71.70;;;;;;5012793;28;20045;-76
2023/05/09 06:03:01;;;;;;;11.07;7.95;;;18.30;71.80;;;;;;5013961;28;20030;-77
2023/05/09 06:05:33;;;;;;;10.57;8.15;;;18.30;71.80;;;;;;4998573;28;20471;-76
2023/05/09 06:07:59;;;;;;;9.68;7.90;;;18.30;71.80;;;;;;5045818;28;20060;-77
2023/05/09 06:10:24;;;;;;;10.90;8.32;;;18.30;71.80;;;;;;4996645;28;20026;-76
2023/05/09 06:12:50;;;;;;;10.77;8.10;;;18.30;71.80;;;;;;5012494;28;20034;-76
2023/05/09 06:15:16;;;;;;;10.00;7.70;;;18.30;71.80;;;;;;4996305;28;20044;-76
2023/05/09 06:17:45;;;;;;;10.70;7.93;;;18.30;71.80;;;;;;5013091;28;20198;-76
2023/05/09 06:20:11;;;;;;;10.25;8.18;;;18.30;71.80;;;;;;4996375;28;20521;-76
2023/05/09 06:22:37;;;;;;;11.98;8.23;;;18.30;71.90;;;;;;5012812;28;20041;-76
2023/05/09 06:25:03;;;;;;;11.48;7.82;;;18.30;71.90;;;;;;5012894;28;20026;-76
2023/05/09 06:27:29;;;;;;;9.63;7.70;;;18.30;71.90;;;;;;5012838;28;20137;-76
2023/05/09 06:29:55;;;;;;;9.95;7.85;;;18.30;71.90;;;;;;5012675;28;20088;-76
2023/05/09 06:32:20;;;;;;;9.70;7.78;;;18.30;71.90;;;;;;5013979;28;20498;-76
2023/05/09 06:34:47;;;;;;;9.52;7.70;;;18.40;71.90;;;;;;4980554;28;20065;-76
2023/05/09 06:37:12;;;;;;;9.93;7.20;;;18.30;71.90;;;;;;4996025;28;20479;-76
2023/05/09 06:39:38;;;;;;;9.38;7.07;;;18.40;71.90;;;;;;5013520;28;20033;-76
2023/05/09 06:42:04;;;;;;;9.05;6.88;;;18.40;71.90;;;;;;5012273;28;20076;-76
2023/05/09 06:44:31;;;;;;;9.43;7.18;;;18.40;71.90;;;;;;5030259;28;20112;-76
2023/05/09 06:46:57;;;;;;;9.38;7.20;;;18.40;71.90;;;;;;5016689;28;20446;-76
2023/05/09 06:49:23;;;;;;;8.15;6.82;;;18.40;71.90;;;;;;5016328;28;20026;-76
2023/05/09 06:51:48;;;;;;;9.18;7.03;;;18.40;71.90;;;;;;5049258;28;20532;-76
2023/05/09 06:54:16;;;;;;;8.93;6.80;;;18.50;71.90;;;;;;5016528;28;20033;-76
2023/05/09 06:56:41;;;;;;;8.73;7.07;;;18.50;71.90;;;;;;5017378;28;20041;-76
2023/05/09 06:59:12;;;;;;;9.07;7.03;;;18.50;71.90;;;;;;4983775;28;20438;-76
2023/05/09 07:01:40;;;;;;;9.00;7.07;;;18.50;71.90;;;;;;5016879;28;20464;-76
2023/05/09 07:04:06;;;;;;;9.07;7.07;;;18.50;71.90;;;;;;5033681;28;20105;-76
2023/05/09 07:06:32;;;;;;;9.55;7.20;;;18.60;72.00;;;;;;5000889;28;20038;-76
2023/05/09 07:08:57;;;;;;;8.57;6.60;;;18.60;71.90;;;;;;5017507;28;20026;-76
2023/05/09 07:11:23;;;;;;;8.43;6.15;;;18.60;71.90;;;;;;5054908;28;20052;-77
2023/05/09 07:13:49;;;;;;;8.40;6.57;;;18.60;71.90;;;;;;5024044;28;20171;-76
2023/05/09 07:16:16;;;;;;;7.60;6.20;;;18.60;71.90;;;;;;5010223;28;20084;-77
2023/05/09 07:18:42;;;;;;;7.47;6.30;;;18.60;71.90;;;;;;5060729;28;20073;-76
2023/05/09 07:21:08;;;;;;;8.63;6.97;;;18.70;72.00;;;;;;5008007;28;20038;-75
2023/05/09 07:23:33;;;;;;;8.20;6.57;;;18.70;72.00;;;;;;5036297;28;20121;-76
2023/05/09 07:26:00;;;;;;;8.70;6.53;;;18.70;72.00;;;;;;5019630;28;20452;-76
2023/05/09 07:28:26;;;;;;;8.38;6.18;;;18.70;71.90;;;;;;5017122;28;20065;-76
2023/05/09 07:30:54;;;;;;;8.02;6.18;;;18.70;71.90;;;;;;5015409;28;20052;-76
2023/05/09 07:33:20;;;;;;;8.15;6.65;;;18.80;71.90;;;;;;5016444;28;20030;-76
2023/05/09 07:35:45;;;;;;;7.97;6.35;;;18.80;71.90;;;;;;5015193;28;20129;-75
2023/05/09 07:38:11;;;;;;;7.95;6.20;;;18.80;71.90;;;;;;5015222;28;20409;-76
2023/05/09 07:40:37;;;;;;;7.97;6.30;;;18.90;71.90;;;;;;5016692;28;20042;-76
2023/05/09 07:43:03;;;;;;;7.57;5.95;;;18.90;71.80;;;;;;5015684;28;20368;-76
2023/05/09 07:45:29;;;;;;;8.02;5.93;;;18.90;71.70;;;;;;5015032;28;20041;-76
2023/05/09 07:47:54;;;;;;;7.88;6.30;;;19.00;71.80;;;;;;5015284;28;20041;-76
2023/05/09 07:50:22;;;;;;;8.50;6.35;;;19.00;71.80;;;;;;4999619;28;20030;-75
2023/05/09 07:52:48;;;;;;;8.02;6.10;;;19.00;71.80;;;;;;5015703;28;20128;-76
2023/05/09 07:55:13;;;;;;;7.53;5.75;;;19.00;71.70;;;;;;5015872;28;20462;-76
2023/05/09 07:57:39;;;;;;;6.95;5.85;;;19.10;71.80;;;;;;5014293;28;20083;-76
2023/05/09 08:00:07;;;;;;;8.32;6.30;;;19.10;71.80;;;;;;4998872;28;20489;-76
2023/05/09 08:02:39;;;;;;;7.60;6.13;;;19.10;71.80;;;;;;5015891;28;20045;-76
2023/05/09 08:05:05;;;;;;;8.27;6.45;;;19.10;71.70;;;;;;5031256;28;20034;-76
2023/05/09 08:07:31;;;;;;;8.32;5.68;;;19.10;71.70;;;;;;5047602;28;20521;-76
2023/05/09 08:09:57;;;;;;;7.40;5.88;;;19.20;71.80;;;;;;5014773;28;20038;-76
2023/05/09 08:12:22;;;;;;;7.75;6.38;;;19.20;71.70;;;;;;5004984;28;20057;-76
2023/05/09 08:14:48;;;;;;;7.10;5.82;;;19.20;71.70;;;;;;5028338;28;20045;-76
2023/05/09 08:17:15;;;;;;;8.20;6.18;;;19.20;71.70;;;;;;5015130;28;20037;-76
2023/05/09 08:19:40;;;;;;;7.72;6.15;;;19.30;71.70;;;;;;5032329;28;20088;-76
2023/05/09 08:22:06;;;;;;;7.60;6.15;;;19.30;71.70;;;;;;5048539;28;20025;-76
2023/05/09 08:24:32;;;;;;;6.93;5.72;;;19.30;71.70;;;;;;5016053;28;20029;-76
2023/05/09 08:26:58;;;;;;;7.60;5.82;;;19.30;72.30;;;;;;5014433;28;20037;-76
2023/05/09 08:29:23;;;;;;;7.70;5.82;;;19.40;71.60;;;;;;5015169;28;20049;-77
2023/05/09 08:31:50;;;;;;;6.82;5.70;;;19.40;71.60;;;;;;5013993;28;20026;-76
2023/05/09 08:34:16;;;;;;;7.05;5.75;;;19.40;71.60;;;;;;5016106;28;20072;-76
2023/05/09 08:36:44;;;;;;;6.93;5.72;;;19.40;71.60;;;;;;5015431;28;20030;-76
2023/05/09 08:39:10;;;;;;;7.43;5.93;;;19.40;71.50;;;;;;5016076;28;20054;-76
2023/05/09 08:41:37;;;;;;;7.93;5.72;;;19.50;71.50;;;;;;5047919;28;20367;-76
2023/05/09 08:44:03;;;;;;;7.03;5.70;;;19.50;71.50;;;;;;5014033;28;20034;-75
2023/05/09 08:46:39;;;;;;;6.55;5.53;;;19.50;71.50;;;;;;4997887;28;20038;-76
2023/05/09 08:49:06;;;;;;;7.13;5.80;;;19.50;71.60;;;;;;5030480;28;20466;-75
2023/05/09 08:51:32;;;;;;;6.68;5.35;;;19.50;71.50;;;;;;5046930;28;20386;-76
2023/05/09 08:53:58;;;;;;;7.45;5.82;;;19.50;71.40;;;;;;5046883;28;20034;-76
2023/05/09 08:56:25;;;;;;;6.88;5.38;;;19.60;71.50;;;;;;5030383;28;20042;-76
2023/05/09 08:58:53;;;;;;;7.30;5.57;;;19.60;71.50;;;;;;5014277;28;20034;-76
2023/05/09 09:01:19;;;;;;;6.80;5.07;;;19.60;71.50;;;;;;5013691;28;20021;-76
2023/05/09 09:03:48;;;;;;;6.47;5.10;;;19.60;71.40;;;;;;5046780;28;20056;-76
2023/05/09 09:06:15;;;;;;;7.15;5.60;;;19.60;71.40;;;;;;5015011;28;20045;-76
2023/05/09 09:08:42;;;;;;;7.18;5.80;;;19.70;71.50;;;;;;5014549;28;20084;-76
2023/05/09 09:11:12;;;;;;;7.63;6.18;;;19.70;71.40;;;;;;4997244;28;20096;-76
2023/05/09 09:13:40;;;;;;;7.55;5.53;;;19.70;71.40;;;;;;5014662;28;20382;-75
2023/05/09 09:16:19;;;;;;;6.60;5.28;;;19.70;71.40;;;;;;4997055;28;20106;-75
2023/05/09 09:18:45;;;;;;;6.05;4.70;;;19.70;71.40;;;;;;5030805;28;20030;-76
2023/05/09 09:21:14;;;;;;;6.40;5.25;;;19.70;71.30;;;;;;5014635;28;20033;-75
2023/05/09 09:23:42;;;;;;;6.50;5.50;;;19.70;71.30;;;;;;5014501;28;20109;-76
2023/05/09 09:26:08;;;;;;;6.90;5.20;;;19.80;71.40;;;;;;5030561;28;20026;-76
2023/05/09 09:28:34;;;;;;;6.38;5.45;;;19.80;71.40;;;;;;4997902;28;20026;-76
2023/05/09 09:31:00;;;;;;;7.07;6.05;;;19.80;71.40;;;;;;5031590;28;20348;-75
2023/05/09 09:33:28;;;;;;;6.18;5.10;;;19.80;71.30;;;;;;5029605;28;20057;-76
2023/05/09 09:35:55;;;;;;;7.20;5.65;;;19.80;71.30;;;;;;5014661;28;20037;-76
2023/05/09 09:38:23;;;;;;;8.13;5.75;;;19.80;71.30;;;;;;5029927;28;20080;-76
2023/05/09 09:40:55;;;;;;;7.22;5.97;;;19.80;71.30;;;;;;5046559;28;20052;-76
2023/05/09 09:43:27;;;;;;;6.32;5.22;;;19.80;71.30;;;;;;5013962;28;20045;-76
2023/05/09 09:45:53;;;;;;;6.78;5.32;;;19.80;71.40;;;;;;5014263;28;20486;-76
2023/05/09 09:48:24;;;;;;;6.80;5.55;;;19.80;71.30;;;;;;5013958;28;20087;-75
2023/05/09 09:50:50;;;;;;;7.13;5.25;;;19.80;71.40;;;;;;5013301;28;20459;-75
2023/05/09 09:53:19;;;;;;;6.95;5.57;;;19.80;71.30;;;;;;5014168;28;20060;-76
2023/05/09 09:55:49;;;;;;;6.40;5.25;;;19.80;71.30;;;;;;5033152;28;20037;-75
2023/05/09 09:58:17;;;;;;;7.45;5.53;;;19.90;71.40;;;;;;5029690;28;20092;-75
2023/05/09 10:00:44;;;;;;;6.15;5.22;;;19.90;71.40;;;;;;5035109;28;20026;-76
2023/05/09 10:03:17;;;;;;;5.88;5.07;;;19.80;71.30;;;;;;5038476;28;20088;-76
2023/05/09 10:05:43;;;;;;;6.38;5.10;;;19.80;71.40;;;;;;5020679;28;20038;-75
2023/05/09 10:08:09;;;;;;;6.47;5.22;;;19.90;71.40;;;;;;5015977;28;20034;-75
2023/05/09 10:10:36;;;;;;;6.32;5.40;;;19.90;71.40;;;;;;5013687;28;20033;-75
2023/05/09 10:13:08;;;;;;;5.57;4.50;;;19.90;71.40;;;;;;5030300;28;20026;-76
2023/05/09 10:15:36;;;;;;;6.45;4.93;;;19.90;71.40;;;;;;5014504;28;20042;-75
2023/05/09 10:18:03;;;;;;;6.10;4.53;;;19.90;71.40;;;;;;5029326;28;20092;-75
2023/05/09 10:20:29;;;;;;;6.50;5.15;;;19.90;71.40;;;;;;5016072;28;20038;-75
2023/05/09 10:22:57;;;;;;;6.75;4.85;;;20.00;71.40;;;;;;5000655;28;20076;-75
2023/05/09 10:26:06;;;;;;;6.22;4.95;;;19.90;71.30;;;;;;5033365;28;20064;-75
2023/05/09 10:28:34;;;;;;;5.53;4.35;;;20.00;72.10;;;;;;5015847;28;20140;-76
2023/05/09 10:31:13;;;;;;;5.30;4.40;;;20.00;71.30;;;;;;5033358;28;20491;-76
2023/05/09 10:33:49;;;;;;;5.90;4.50;;;20.00;71.30;;;;;;5017714;28;20061;-75
2023/05/09 10:36:20;;;;;;;5.43;4.35;;;20.00;71.30;;;;;;5033254;28;20064;-75
2023/05/09 10:38:47;;;;;;;5.18;4.20;;;20.10;71.30;;;;;;5000067;28;20065;-75
2023/05/09 10:41:15;;;;;;;5.03;4.13;;;20.10;71.20;;;;;;5017257;28;20046;-76
2023/05/09 10:43:41;;;;;;;5.57;4.47;;;20.00;71.20;;;;;;5000005;28;20084;-75
2023/05/09 10:46:08;;;;;;;5.32;4.25;;;20.10;71.20;;;;;;5016213;28;20038;-76
2023/05/09 10:48:35;;;;;;;5.32;4.38;;;20.10;71.20;;;;;;5016742;28;20022;-75
2023/05/09 10:51:02;;;;;;;5.75;4.47;;;20.10;71.10;;;;;;5017777;28;20502;-76
2023/05/09 10:53:43;;;;;;;5.07;4.13;;;20.10;71.20;;;;;;5016626;28;20426;-75
2023/05/09 10:56:31;;;;;;;5.60;4.25;;;20.10;71.20;;;;;;5032812;28;20034;-76
2023/05/09 10:59:00;;;;;;;4.93;3.78;;;20.20;71.20;;;;;;5016786;28;20113;-76
2023/05/09 11:01:38;;;;;;;5.30;3.88;;;20.20;71.00;;;;;;5032517;28;20115;-76
2023/05/09 11:04:11;;;;;;;5.45;4.18;;;20.20;71.10;;;;;;5033036;28;20037;-75
2023/05/09 11:06:44;;;;;;;5.07;4.13;;;20.20;71.00;;;;;;5032350;28;20034;-75
2023/05/09 11:09:27;;;;;;;4.35;3.55;;;20.20;71.00;;;;;;5015937;28;20471;-76
2023/05/09 11:11:55;;;;;;;4.47;3.72;;;20.20;71.10;;;;;;5049174;28;20614;-76
2023/05/09 11:14:45;;;;;;;4.93;3.70;;;20.20;71.00;;;;;;5016712;28;20029;-75
2023/05/09 11:17:20;;;;;;;4.43;3.53;;;20.30;71.10;;;;;;5017590;28;20411;-75
2023/05/09 11:19:46;;;;;;;4.30;3.53;;;20.20;71.00;;;;;;5048774;28;20503;-76
2023/05/09 11:22:15;;;;;;;4.40;3.72;;;20.20;71.00;;;;;;5048980;28;20040;-76
2023/05/09 11:24:45;;;;;;;5.47;4.13;;;20.20;71.00;;;;;;5017057;28;20031;-76
2023/05/09 11:27:22;;;;;;;4.93;3.95;;;20.30;71.10;;;;;;5032152;28;20030;-77
2023/05/09 11:29:57;;;;;;;5.10;4.10;;;20.30;71.10;;;;;;5032201;28;20041;-76
2023/05/09 11:32:39;;;;;;;5.03;3.85;;;20.20;71.10;;;;;;5014790;28;20125;-76
2023/05/09 11:35:13;;;;;;;4.60;3.78;;;20.30;71.20;;;;;;5032107;28;20063;-76
2023/05/09 11:37:54;;;;;;;4.35;3.50;;;20.20;71.10;;;;;;5031922;28;20077;-76
2023/05/09 11:40:21;;;;;;;4.30;3.58;;;20.20;71.10;;;;;;5031950;28;20038;-76
2023/05/09 11:42:52;;;;;;;4.90;3.78;;;20.20;71.10;;;;;;5048399;28;20030;-76
2023/05/09 11:45:18;;;;;;;4.00;3.20;;;20.20;71.20;;;;;;5017006;28;20045;-76
2023/05/09 11:47:45;;;;;;;4.13;3.38;;;20.20;71.20;;;;;;4999060;28;20026;-76
2023/05/09 11:50:12;;;;;;;4.20;3.40;;;20.20;71.20;;;;;;4999228;28;20042;-76
2023/05/09 11:52:39;;;;;;;4.90;3.45;;;20.20;71.20;;;;;;5016555;28;20025;-76
2023/05/09 11:55:09;;;;;;;4.07;3.28;;;20.20;71.20;;;;;;5031437;28;20041;-77
2023/05/09 11:57:39;;;;;;;4.13;3.28;;;20.20;71.20;;;;;;5000511;28;20038;-77
2023/05/09 12:00:08;;;;;;;4.18;3.40;;;20.20;71.30;;;;;;5016581;28;20033;-76
2023/05/09 12:02:35;;;;;;;4.05;3.15;;;20.20;71.30;;;;;;5016400;28;20154;-76
2023/05/09 12:05:09;;;;;;;5.53;3.35;;;20.20;71.20;;;;;;5017258;28;20040;-76
2023/05/09 12:07:36;;;;;;;3.75;3.10;;;20.20;71.30;;;;;;5016603;28;20032;-77
2023/05/09 12:10:07;;;;;;;4.85;2.90;;;20.20;71.20;;;;;;5048708;28;20034;-77
2023/05/09 12:12:47;;;;;;;4.00;2.90;;;20.20;71.30;;;;;;5031102;28;20037;-76
2023/05/09 12:15:14;;;;;;;3.75;2.95;;;20.20;71.30;;;;;;5031844;28;20463;-76
2023/05/09 12:17:40;;;;;;;4.72;3.10;;;20.20;71.30;;;;;;5014903;28;20376;-77
2023/05/09 12:20:07;;;;;;;3.85;2.92;;;20.20;71.30;;;;;;5015589;28;20042;-77
2023/05/09 12:22:34;;;;;;;3.17;2.67;;;20.20;71.40;;;;;;5014777;28;20030;-77
2023/05/09 12:25:04;;;;;;;3.70;2.67;;;20.20;71.40;;;;;;5014962;28;20057;-77
2023/05/09 12:27:31;;;;;;;3.20;2.65;;;20.20;71.40;;;;;;5015326;28;20030;-77
2023/05/09 12:29:59;;;;;;;3.70;2.75;;;20.20;71.40;;;;;;5031127;28;20463;-77
2023/05/09 12:32:30;;;;;;;3.42;2.70;;;20.20;71.40;;;;;;5030961;28;20109;-77
2023/05/09 12:34:57;;;;;;;3.47;2.65;;;20.20;71.40;;;;;;5016455;28;20033;-77
2023/05/09 12:37:23;;;;;;;2.85;2.30;;;20.20;71.40;;;;;;5030696;28;20088;-77
2023/05/09 12:40:14;;;;;;;3.45;2.58;;;20.20;71.40;;;;;;5014517;28;20034;-77
2023/05/09 12:42:43;;;;;;;3.00;2.30;;;20.20;71.50;;;;;;5015365;28;20371;-77
2023/05/09 12:45:10;;;;;;;3.33;2.60;;;20.30;71.50;;;;;;5031175;28;20474;-77
2023/05/09 12:47:37;;;;;;;2.78;2.20;;;20.20;71.40;;;;;;5034503;28;20491;-77